sensor_id;sensor_type;location;lat;lon;timestamp;pressure;altitude;pressure_sealevel;temperature;humidity
26859;BME280;14429;48.346;16.338;2023-05-08T00:00:28;100451.09;;;16.41;43.94
26859;BME280;14429;48.346;16.338;2023-05-08T00:02:55;100445.16;;;17.43;52.30
26859;BME280;14429;48.346;16.338;2023-05-08T00:05:20;100451.72;;;16.55;46.07
26859;BME280;14429;48.346;16.338;2023-05-08T00:07:46;100454.47;;;16.00;44.89
26859;BME280;14429;48.346;16.338;2023-05-08T00:10:11;100452.31;;;16.37;50.10
26859;BME280;14429;48.346;16.338;2023-05-08T00:12:38;100447.66;;;17.24;52.41
26859;BME280;14429;48.346;16.338;2023-05-08T00:15:04;100445.00;;;17.02;46.29
26859;BME280;14429;48.346;16.338;2023-05-08T00:17:30;100448.56;;;17.14;51.36
26859;BME280;14429;48.346;16.338;2023-05-08T00:19:56;100455.03;;;16.37;49.44
26859;BME280;14429;48.346;16.338;2023-05-08T00:22:21;100451.56;;;15.58;46.97
26859;BME280;14429;48.346;16.338;2023-05-08T00:24:47;100457.25;;;15.09;46.80
26859;BME280;14429;48.346;16.338;2023-05-08T00:27:12;100453.41;;;14.65;50.07
26859;BME280;14429;48.346;16.338;2023-05-08T00:29:39;100458.19;;;14.50;49.42
26859;BME280;14429;48.346;16.338;2023-05-08T00:32:05;100460.97;;;14.83;53.55
26859;BME280;14429;48.346;16.338;2023-05-08T00:34:30;100458.75;;;14.18;49.15
26859;BME280;14429;48.346;16.338;2023-05-08T00:36:55;100458.78;;;14.88;49.00
26859;BME280;14429;48.346;16.338;2023-05-08T00:39:21;100451.47;;;14.67;50.65
26859;BME280;14429;48.346;16.338;2023-05-08T00:41:46;100460.59;;;14.05;50.13
26859;BME280;14429;48.346;16.338;2023-05-08T00:44:12;100453.25;;;14.79;56.68
26859;BME280;14429;48.346;16.338;2023-05-08T00:46:39;100452.81;;;15.65;51.23
26859;BME280;14429;48.346;16.338;2023-05-08T00:49:05;100456.78;;;15.15;47.22
26859;BME280;14429;48.346;16.338;2023-05-08T00:51:31;100454.50;;;15.55;55.55
26859;BME280;14429;48.346;16.338;2023-05-08T00:53:59;100458.09;;;14.39;47.80
26859;BME280;14429;48.346;16.338;2023-05-08T00:56:27;100466.72;;;13.95;50.64
26859;BME280;14429;48.346;16.338;2023-05-08T00:58:53;100470.44;;;14.41;49.87
26859;BME280;14429;48.346;16.338;2023-05-08T01:01:19;100459.09;;;15.76;52.07
26859;BME280;14429;48.346;16.338;2023-05-08T01:03:46;100452.88;;;16.95;53.55
26859;BME280;14429;48.346;16.338;2023-05-08T01:06:11;100455.63;;;16.19;54.72
26859;BME280;14429;48.346;16.338;2023-05-08T01:08:37;100469.03;;;16.08;53.35
26859;BME280;14429;48.346;16.338;2023-05-08T01:11:10;100458.31;;;15.07;51.38
26859;BME280;14429;48.346;16.338;2023-05-08T01:13:46;100463.72;;;15.74;56.30
26859;BME280;14429;48.346;16.338;2023-05-08T01:16:15;100466.84;;;16.78;54.82
26859;BME280;14429;48.346;16.338;2023-05-08T01:18:44;100459.38;;;16.81;52.87
26859;BME280;14429;48.346;16.338;2023-05-08T01:21:30;100457.38;;;17.47;51.00
26859;BME280;14429;48.346;16.338;2023-05-08T01:24:18;100452.91;;;16.73;45.86
26859;BME280;14429;48.346;16.338;2023-05-08T01:27:03;100453.19;;;16.48;48.00
26859;BME280;14429;48.346;16.338;2023-05-08T01:30:06;100461.25;;;16.27;53.39
26859;BME280;14429;48.346;16.338;2023-05-08T01:32:37;100456.78;;;16.04;46.48
26859;BME280;14429;48.346;16.338;2023-05-08T01:35:11;100461.28;;;14.56;48.39
26859;BME280;14429;48.346;16.338;2023-05-08T01:37:48;100466.63;;;15.27;54.70
26859;BME280;14429;48.346;16.338;2023-05-08T01:40:20;100479.91;;;13.98;49.43
26859;BME280;14429;48.346;16.338;2023-05-08T01:42:55;100478.50;;;14.17;55.11
26859;BME280;14429;48.346;16.338;2023-05-08T01:45:25;100476.63;;;13.68;51.51
26859;BME280;14429;48.346;16.338;2023-05-08T01:48:01;100474.91;;;13.17;51.11
26859;BME280;14429;48.346;16.338;2023-05-08T01:50:33;100478.66;;;13.65;51.48
26859;BME280;14429;48.346;16.338;2023-05-08T01:53:04;100475.66;;;13.57;51.61
26859;BME280;14429;48.346;16.338;2023-05-08T01:55:34;100482.19;;;13.15;51.23
26859;BME280;14429;48.346;16.338;2023-05-08T01:58:03;100477.34;;;13.58;51.79
26859;BME280;14429;48.346;16.338;2023-05-08T02:00:31;100475.66;;;14.55;58.57
26859;BME280;14429;48.346;16.338;2023-05-08T02:02:58;100471.28;;;15.36;57.93
26859;BME280;14429;48.346;16.338;2023-05-08T02:05:25;100472.78;;;15.39;55.15
26859;BME280;14429;48.346;16.338;2023-05-08T02:07:53;100464.13;;;15.01;49.21
26859;BME280;14429;48.346;16.338;2023-05-08T02:10:20;100475.81;;;15.69;52.80
26859;BME280;14429;48.346;16.338;2023-05-08T02:12:48;100478.41;;;15.81;53.66
26859;BME280;14429;48.346;16.338;2023-05-08T02:15:15;100478.22;;;16.06;51.96
26859;BME280;14429;48.346;16.338;2023-05-08T02:17:42;100468.84;;;16.76;52.83
26859;BME280;14429;48.346;16.338;2023-05-08T02:20:13;100472.03;;;16.38;50.63
26859;BME280;14429;48.346;16.338;2023-05-08T02:22:40;100474.72;;;16.38;44.82
26859;BME280;14429;48.346;16.338;2023-05-08T02:25:08;100473.91;;;17.00;52.73
26859;BME280;14429;48.346;16.338;2023-05-08T02:27:35;100466.44;;;17.46;51.67
26859;BME280;14429;48.346;16.338;2023-05-08T02:30:00;100469.13;;;17.04;43.38
26859;BME280;14429;48.346;16.338;2023-05-08T02:32:26;100475.13;;;17.18;51.63
26859;BME280;14429;48.346;16.338;2023-05-08T02:34:54;100468.03;;;17.68;51.56
26859;BME280;14429;48.346;16.338;2023-05-08T02:37:22;100479.94;;;16.82;49.85
26859;BME280;14429;48.346;16.338;2023-05-08T02:39:48;100478.59;;;17.09;50.73
26859;BME280;14429;48.346;16.338;2023-05-08T02:42:15;100480.84;;;16.61;52.43
26859;BME280;14429;48.346;16.338;2023-05-08T02:44:41;100484.19;;;17.28;51.31
26859;BME280;14429;48.346;16.338;2023-05-08T02:47:14;100487.19;;;16.71;51.44
26859;BME280;14429;48.346;16.338;2023-05-08T02:49:47;100487.78;;;16.74;45.56
26859;BME280;14429;48.346;16.338;2023-05-08T02:52:17;100480.75;;;17.26;52.53
26859;BME280;14429;48.346;16.338;2023-05-08T02:54:54;100488.16;;;16.27;43.80
26859;BME280;14429;48.346;16.338;2023-05-08T02:57:30;100484.31;;;16.08;43.85
26859;BME280;14429;48.346;16.338;2023-05-08T03:00:01;100476.31;;;17.36;51.42
26859;BME280;14429;48.346;16.338;2023-05-08T03:02:32;100479.03;;;17.25;45.43
26859;BME280;14429;48.346;16.338;2023-05-08T03:05:02;100488.13;;;17.24;51.07
26859;BME280;14429;48.346;16.338;2023-05-08T03:07:31;100479.88;;;17.56;49.66
26859;BME280;14429;48.346;16.338;2023-05-08T03:10:01;100482.47;;;17.98;49.04
26859;BME280;14429;48.346;16.338;2023-05-08T03:12:32;100490.28;;;17.61;41.99
26859;BME280;14429;48.346;16.338;2023-05-08T03:15:04;100477.97;;;17.68;42.63
26859;BME280;14429;48.346;16.338;2023-05-08T03:17:33;100487.13;;;17.25;42.82
26859;BME280;14429;48.346;16.338;2023-05-08T03:20:02;100493.31;;;16.19;44.89
26859;BME280;14429;48.346;16.338;2023-05-08T03:22:29;100482.31;;;17.39;50.93
26859;BME280;14429;48.346;16.338;2023-05-08T03:25:00;100485.22;;;17.47;49.88
26859;BME280;14429;48.346;16.338;2023-05-08T03:27:27;100490.88;;;17.64;50.52
26859;BME280;14429;48.346;16.338;2023-05-08T03:29:54;100484.06;;;17.81;50.31
26859;BME280;14429;48.346;16.338;2023-05-08T03:32:21;100493.84;;;17.61;49.20
26859;BME280;14429;48.346;16.338;2023-05-08T03:34:49;100492.94;;;17.92;50.34
26859;BME280;14429;48.346;16.338;2023-05-08T03:37:15;100491.34;;;18.00;50.25
26859;BME280;14429;48.346;16.338;2023-05-08T03:39:41;100490.53;;;18.09;49.55
26859;BME280;14429;48.346;16.338;2023-05-08T03:42:08;100495.06;;;18.08;49.69
26859;BME280;14429;48.346;16.338;2023-05-08T03:44:34;100496.59;;;17.51;46.64
26859;BME280;14429;48.346;16.338;2023-05-08T03:47:01;100504.66;;;17.61;50.49
26859;BME280;14429;48.346;16.338;2023-05-08T03:49:28;100505.31;;;16.69;48.26
26859;BME280;14429;48.346;16.338;2023-05-08T03:51:55;100498.94;;;16.59;44.62
26859;BME280;14429;48.346;16.338;2023-05-08T03:54:21;100503.59;;;16.79;51.03
26859;BME280;14429;48.346;16.338;2023-05-08T03:56:46;100496.09;;;17.46;51.53
26859;BME280;14429;48.346;16.338;2023-05-08T03:59:18;100496.59;;;17.51;49.34
26859;BME280;14429;48.346;16.338;2023-05-08T04:01:53;100496.94;;;17.04;49.98
26859;BME280;14429;48.346;16.338;2023-05-08T04:04:25;100508.09;;;15.69;43.64
26859;BME280;14429;48.346;16.338;2023-05-08T04:06:58;100503.25;;;17.36;50.75
26859;BME280;14429;48.346;16.338;2023-05-08T04:09:30;100510.19;;;17.18;50.79
26859;BME280;14429;48.346;16.338;2023-05-08T04:12:02;100507.63;;;17.48;50.07
26859;BME280;14429;48.346;16.338;2023-05-08T04:14:33;100504.81;;;17.80;49.08
26859;BME280;14429;48.346;16.338;2023-05-08T04:17:02;100508.72;;;17.76;48.57
26859;BME280;14429;48.346;16.338;2023-05-08T04:19:33;100512.91;;;17.38;46.84
26859;BME280;14429;48.346;16.338;2023-05-08T04:22:05;100512.66;;;17.41;43.23
26859;BME280;14429;48.346;16.338;2023-05-08T04:24:33;100513.41;;;16.58;44.33
26859;BME280;14429;48.346;16.338;2023-05-08T04:27:00;100523.66;;;16.21;49.87
26859;BME280;14429;48.346;16.338;2023-05-08T04:29:26;100509.25;;;17.39;51.29
26859;BME280;14429;48.346;16.338;2023-05-08T04:31:54;100520.00;;;15.54;44.74
26859;BME280;14429;48.346;16.338;2023-05-08T04:34:21;100530.63;;;15.90;45.07
26859;BME280;14429;48.346;16.338;2023-05-08T04:36:47;100534.31;;;15.32;46.00
26859;BME280;14429;48.346;16.338;2023-05-08T04:39:12;100529.66;;;15.91;53.58
26859;BME280;14429;48.346;16.338;2023-05-08T04:41:38;100529.19;;;15.96;45.70
26859;BME280;14429;48.346;16.338;2023-05-08T04:44:03;100538.09;;;16.20;45.13
26859;BME280;14429;48.346;16.338;2023-05-08T04:46:29;100543.03;;;16.69;48.63
26859;BME280;14429;48.346;16.338;2023-05-08T04:48:56;100541.75;;;17.05;49.94
26859;BME280;14429;48.346;16.338;2023-05-08T04:51:21;100552.09;;;16.57;42.86
26859;BME280;14429;48.346;16.338;2023-05-08T04:53:47;100534.31;;;17.61;50.50
26859;BME280;14429;48.346;16.338;2023-05-08T04:56:12;100537.34;;;17.68;49.30
26859;BME280;14429;48.346;16.338;2023-05-08T04:58:38;100534.56;;;18.09;49.71
26859;BME280;14429;48.346;16.338;2023-05-08T05:01:06;100537.03;;;18.33;48.47
26859;BME280;14429;48.346;16.338;2023-05-08T05:03:32;100533.06;;;18.16;39.81
26859;BME280;14429;48.346;16.338;2023-05-08T05:05:59;100544.06;;;18.24;47.04
26859;BME280;14429;48.346;16.338;2023-05-08T05:08:24;100542.63;;;18.20;39.98
26859;BME280;14429;48.346;16.338;2023-05-08T05:10:50;100540.88;;;18.60;45.67
26859;BME280;14429;48.346;16.338;2023-05-08T05:13:15;100543.78;;;17.76;38.58
26859;BME280;14429;48.346;16.338;2023-05-08T05:15:41;100546.09;;;18.32;42.98
26859;BME280;14429;48.346;16.338;2023-05-08T05:18:06;100544.47;;;18.40;39.75
26859;BME280;14429;48.346;16.338;2023-05-08T05:20:31;100542.75;;;17.99;38.91
26859;BME280;14429;48.346;16.338;2023-05-08T05:22:58;100547.50;;;18.26;46.20
26859;BME280;14429;48.346;16.338;2023-05-08T05:25:24;100544.06;;;18.24;40.44
26859;BME280;14429;48.346;16.338;2023-05-08T05:27:49;100553.97;;;18.14;43.49
26859;BME280;14429;48.346;16.338;2023-05-08T05:30:15;100555.88;;;18.43;38.75
26859;BME280;14429;48.346;16.338;2023-05-08T05:32:40;100546.88;;;18.63;43.37
26859;BME280;14429;48.346;16.338;2023-05-08T05:35:06;100558.16;;;18.97;42.09
26859;BME280;14429;48.346;16.338;2023-05-08T05:37:33;100556.28;;;18.89;39.00
26859;BME280;14429;48.346;16.338;2023-05-08T05:40:00;100552.38;;;18.32;41.02
26859;BME280;14429;48.346;16.338;2023-05-08T05:42:25;100537.94;;;18.02;41.84
26859;BME280;14429;48.346;16.338;2023-05-08T05:44:51;100552.91;;;18.76;41.56
26859;BME280;14429;48.346;16.338;2023-05-08T05:47:16;100557.44;;;18.75;41.46
26859;BME280;14429;48.346;16.338;2023-05-08T05:49:42;100557.91;;;18.51;38.28
26859;BME280;14429;48.346;16.338;2023-05-08T05:52:07;100556.06;;;17.80;38.89
26859;BME280;14429;48.346;16.338;2023-05-08T05:54:33;100555.97;;;18.02;43.10
26859;BME280;14429;48.346;16.338;2023-05-08T05:57:00;100564.78;;;17.31;39.91
26859;BME280;14429;48.346;16.338;2023-05-08T05:59:25;100568.69;;;17.38;40.95
26859;BME280;14429;48.346;16.338;2023-05-08T06:01:50;100559.91;;;16.82;41.19
26859;BME280;14429;48.346;16.338;2023-05-08T06:04:16;100575.84;;;17.28;43.34
26859;BME280;14429;48.346;16.338;2023-05-08T06:06:41;100566.16;;;16.39;42.41
26859;BME280;14429;48.346;16.338;2023-05-08T06:09:07;100567.06;;;15.93;43.25
26859;BME280;14429;48.346;16.338;2023-05-08T06:11:32;100565.09;;;14.68;44.99
26859;BME280;14429;48.346;16.338;2023-05-08T06:13:59;100571.53;;;15.48;50.73
26859;BME280;14429;48.346;16.338;2023-05-08T06:16:24;100575.75;;;15.17;45.01
26859;BME280;14429;48.346;16.338;2023-05-08T06:18:50;100577.44;;;15.53;47.99
26859;BME280;14429;48.346;16.338;2023-05-08T06:21:15;100582.91;;;15.29;49.65
26859;BME280;14429;48.346;16.338;2023-05-08T06:23:41;100579.59;;;15.48;51.94
26859;BME280;14429;48.346;16.338;2023-05-08T06:26:06;100580.91;;;15.20;46.04
26859;BME280;14429;48.346;16.338;2023-05-08T06:28:31;100574.81;;;15.64;52.14
26859;BME280;14429;48.346;16.338;2023-05-08T06:30:58;100581.78;;;15.43;47.71
26859;BME280;14429;48.346;16.338;2023-05-08T06:33:25;100583.59;;;15.20;45.09
26859;BME280;14429;48.346;16.338;2023-05-08T06:35:50;100585.78;;;14.90;45.88
26859;BME280;14429;48.346;16.338;2023-05-08T06:38:16;100592.03;;;15.62;45.07
26859;BME280;14429;48.346;16.338;2023-05-08T06:40:41;100580.69;;;15.69;46.98
26859;BME280;14429;48.346;16.338;2023-05-08T06:43:07;100588.31;;;16.09;51.24
26859;BME280;14429;48.346;16.338;2023-05-08T06:45:32;100582.59;;;16.13;53.07
26859;BME280;14429;48.346;16.338;2023-05-08T06:47:59;100594.81;;;15.60;46.57
26859;BME280;14429;48.346;16.338;2023-05-08T06:50:25;100594.34;;;15.66;44.96
26859;BME280;14429;48.346;16.338;2023-05-08T06:52:50;100593.09;;;15.59;45.27
26859;BME280;14429;48.346;16.338;2023-05-08T06:55:16;100593.94;;;15.37;45.65
26859;BME280;14429;48.346;16.338;2023-05-08T06:57:41;100589.47;;;15.94;51.15
26859;BME280;14429;48.346;16.338;2023-05-08T07:00:08;100592.38;;;16.14;50.42
26859;BME280;14429;48.346;16.338;2023-05-08T07:02:34;100585.72;;;15.73;43.82
26859;BME280;14429;48.346;16.338;2023-05-08T07:05:01;100583.94;;;15.85;49.96
26859;BME280;14429;48.346;16.338;2023-05-08T07:07:26;100583.97;;;15.95;43.87
26859;BME280;14429;48.346;16.338;2023-05-08T07:09:53;100581.00;;;16.88;48.77
26859;BME280;14429;48.346;16.338;2023-05-08T07:12:19;100588.84;;;16.80;42.52
26859;BME280;14429;48.346;16.338;2023-05-08T07:14:44;100580.38;;;16.84;46.04
26859;BME280;14429;48.346;16.338;2023-05-08T07:17:10;100588.22;;;16.87;41.55
26859;BME280;14429;48.346;16.338;2023-05-08T07:19:36;100587.19;;;17.42;49.29
26859;BME280;14429;48.346;16.338;2023-05-08T07:22:03;100573.28;;;17.57;43.45
26859;BME280;14429;48.346;16.338;2023-05-08T07:24:29;100580.00;;;17.43;41.95
26859;BME280;14429;48.346;16.338;2023-05-08T07:26:54;100585.13;;;17.35;45.23
26859;BME280;14429;48.346;16.338;2023-05-08T07:29:20;100580.50;;;17.15;42.36
26859;BME280;14429;48.346;16.338;2023-05-08T07:31:45;100581.88;;;17.62;48.00
26859;BME280;14429;48.346;16.338;2023-05-08T07:34:10;100589.09;;;16.99;41.59
26859;BME280;14429;48.346;16.338;2023-05-08T07:36:36;100584.56;;;17.73;50.63
26859;BME280;14429;48.346;16.338;2023-05-08T07:39:03;100594.16;;;17.55;41.94
26859;BME280;14429;48.346;16.338;2023-05-08T07:41:28;100588.53;;;17.89;48.84
26859;BME280;14429;48.346;16.338;2023-05-08T07:43:54;100585.97;;;17.46;43.13
26859;BME280;14429;48.346;16.338;2023-05-08T07:46:19;100592.59;;;17.31;45.14
26859;BME280;14429;48.346;16.338;2023-05-08T07:48:45;100601.66;;;17.52;47.93
26859;BME280;14429;48.346;16.338;2023-05-08T07:51:11;100599.34;;;16.61;41.89
26859;BME280;14429;48.346;16.338;2023-05-08T07:53:36;100596.44;;;17.18;42.91
26859;BME280;14429;48.346;16.338;2023-05-08T07:56:04;100610.16;;;17.26;44.57
26859;BME280;14429;48.346;16.338;2023-05-08T07:58:29;100601.78;;;16.64;44.44
26859;BME280;14429;48.346;16.338;2023-05-08T08:00:55;100591.78;;;15.88;43.39
26859;BME280;14429;48.346;16.338;2023-05-08T08:03:21;100607.56;;;16.15;47.38
26859;BME280;14429;48.346;16.338;2023-05-08T08:05:46;100598.88;;;16.89;46.53
26859;BME280;14429;48.346;16.338;2023-05-08T08:08:12;100594.72;;;17.17;44.46
26859;BME280;14429;48.346;16.338;2023-05-08T08:10:37;100599.34;;;16.83;46.90
26859;BME280;14429;48.346;16.338;2023-05-08T08:13:04;100600.56;;;17.54;50.22
26859;BME280;14429;48.346;16.338;2023-05-08T08:15:30;100601.81;;;16.97;42.08
26859;BME280;14429;48.346;16.338;2023-05-08T08:17:55;100591.25;;;17.37;48.45
26859;BME280;14429;48.346;16.338;2023-05-08T08:20:21;100594.97;;;17.25;44.82
26859;BME280;14429;48.346;16.338;2023-05-08T08:22:46;100585.56;;;17.61;47.44
26859;BME280;14429;48.346;16.338;2023-05-08T08:25:11;100589.53;;;17.47;42.11
26859;BME280;14429;48.346;16.338;2023-05-08T08:27:37;100585.47;;;17.83;47.48
26859;BME280;14429;48.346;16.338;2023-05-08T08:30:05;100584.88;;;17.05;42.30
26859;BME280;14429;48.346;16.338;2023-05-08T08:32:31;100589.31;;;16.85;44.86
26859;BME280;14429;48.346;16.338;2023-05-08T08:34:56;100585.88;;;16.83;42.94
26859;BME280;14429;48.346;16.338;2023-05-08T08:37:21;100582.31;;;17.47;49.26
26859;BME280;14429;48.346;16.338;2023-05-08T08:39:47;100586.88;;;17.03;43.99
26859;BME280;14429;48.346;16.338;2023-05-08T08:42:12;100582.06;;;17.39;48.27
26859;BME280;14429;48.346;16.338;2023-05-08T08:44:44;100587.59;;;16.73;52.03
26859;BME280;14429;48.346;16.338;2023-05-08T08:47:11;100586.41;;;17.09;46.25
26859;BME280;14429;48.346;16.338;2023-05-08T08:49:41;100582.97;;;17.07;49.74
26859;BME280;14429;48.346;16.338;2023-05-08T08:52:17;100580.06;;;17.52;49.51
26859;BME280;14429;48.346;16.338;2023-05-08T08:54:45;100584.91;;;16.84;44.08
26859;BME280;14429;48.346;16.338;2023-05-08T08:57:13;100576.50;;;17.62;50.83
26859;BME280;14429;48.346;16.338;2023-05-08T08:59:39;100581.94;;;17.41;43.58
26859;BME280;14429;48.346;16.338;2023-05-08T09:02:11;100585.47;;;17.52;49.24
26859;BME280;14429;48.346;16.338;2023-05-08T09:04:37;100575.63;;;17.93;49.95
26859;BME280;14429;48.346;16.338;2023-05-08T09:07:03;100568.97;;;18.08;49.56
26859;BME280;14429;48.346;16.338;2023-05-08T09:09:29;100572.13;;;18.12;47.85
26859;BME280;14429;48.346;16.338;2023-05-08T09:11:55;100572.09;;;17.61;43.12
26859;BME280;14429;48.346;16.338;2023-05-08T09:14:20;100578.78;;;17.36;43.45
26859;BME280;14429;48.346;16.338;2023-05-08T09:16:45;100577.25;;;16.24;44.80
26859;BME280;14429;48.346;16.338;2023-05-08T09:19:14;100578.16;;;16.57;49.75
26859;BME280;14429;48.346;16.338;2023-05-08T09:21:40;100574.22;;;16.72;45.44
26859;BME280;14429;48.346;16.338;2023-05-08T09:24:05;100580.75;;;17.12;47.74
26859;BME280;14429;48.346;16.338;2023-05-08T09:26:32;100571.53;;;17.78;50.35
26859;BME280;14429;48.346;16.338;2023-05-08T09:29:16;100576.91;;;17.78;47.98
26859;BME280;14429;48.346;16.338;2023-05-08T09:31:43;100573.03;;;17.60;47.44
26859;BME280;14429;48.346;16.338;2023-05-08T09:34:10;100576.09;;;16.82;43.46
26859;BME280;14429;48.346;16.338;2023-05-08T09:36:37;100570.91;;;17.44;49.93
26859;BME280;14429;48.346;16.338;2023-05-08T09:39:03;100578.28;;;16.66;44.40
26859;BME280;14429;48.346;16.338;2023-05-08T09:41:28;100578.97;;;17.54;50.88
26859;BME280;14429;48.346;16.338;2023-05-08T09:44:01;100578.78;;;17.03;45.26
26859;BME280;14429;48.346;16.338;2023-05-08T09:46:27;100563.34;;;17.16;51.20
26859;BME280;14429;48.346;16.338;2023-05-08T09:48:54;100564.06;;;17.71;50.94
26859;BME280;14429;48.346;16.338;2023-05-08T09:51:20;100561.09;;;17.43;43.65
26859;BME280;14429;48.346;16.338;2023-05-08T09:53:49;100556.34;;;17.97;50.03
26859;BME280;14429;48.346;16.338;2023-05-08T09:56:15;100558.16;;;17.35;46.20
26859;BME280;14429;48.346;16.338;2023-05-08T09:58:41;100565.44;;;17.02;42.82
26859;BME280;14429;48.346;16.338;2023-05-08T10:01:07;100565.97;;;17.49;50.87
26859;BME280;14429;48.346;16.338;2023-05-08T10:03:45;100560.19;;;17.53;44.10
26859;BME280;14429;48.346;16.338;2023-05-08T10:06:11;100555.66;;;17.53;50.75
26859;BME280;14429;48.346;16.338;2023-05-08T10:08:37;100549.88;;;17.16;44.38
26859;BME280;14429;48.346;16.338;2023-05-08T10:11:13;100553.50;;;17.48;45.89
26859;BME280;14429;48.346;16.338;2023-05-08T10:13:39;100555.53;;;16.92;44.52
26859;BME280;14429;48.346;16.338;2023-05-08T10:16:06;100552.81;;;16.81;46.13
26859;BME280;14429;48.346;16.338;2023-05-08T10:18:34;100542.72;;;17.37;50.92
26859;BME280;14429;48.346;16.338;2023-05-08T10:21:06;100547.53;;;17.95;50.08
26859;BME280;14429;48.346;16.338;2023-05-08T10:23:33;100536.09;;;17.72;43.86
26859;BME280;14429;48.346;16.338;2023-05-08T10:26:04;100529.91;;;17.08;45.99
26859;BME280;14429;48.346;16.338;2023-05-08T10:28:41;100538.38;;;16.82;44.04
26859;BME280;14429;48.346;16.338;2023-05-08T10:31:10;100530.72;;;17.30;51.31
26859;BME280;14429;48.346;16.338;2023-05-08T10:33:39;100529.56;;;16.80;44.50
26859;BME280;14429;48.346;16.338;2023-05-08T10:36:06;100536.28;;;16.85;45.73
26859;BME280;14429;48.346;16.338;2023-05-08T10:38:33;100528.34;;;16.73;44.12
26859;BME280;14429;48.346;16.338;2023-05-08T10:40:59;100520.34;;;16.93;45.35
26859;BME280;14429;48.346;16.338;2023-05-08T10:43:25;100517.03;;;17.22;51.25
26859;BME280;14429;48.346;16.338;2023-05-08T10:45:55;100520.22;;;17.16;46.04
26859;BME280;14429;48.346;16.338;2023-05-08T10:48:26;100507.25;;;17.10;46.51
26859;BME280;14429;48.346;16.338;2023-05-08T10:51:01;100509.47;;;16.95;48.23
26859;BME280;14429;48.346;16.338;2023-05-08T10:53:33;100504.56;;;16.99;45.70
26859;BME280;14429;48.346;16.338;2023-05-08T10:56:01;100499.75;;;17.25;50.67
26859;BME280;14429;48.346;16.338;2023-05-08T10:58:28;100495.44;;;17.33;46.08
26859;BME280;14429;48.346;16.338;2023-05-08T11:01:17;100492.84;;;17.31;49.92
26859;BME280;14429;48.346;16.338;2023-05-08T11:03:45;100496.22;;;16.92;44.29
26859;BME280;14429;48.346;16.338;2023-05-08T11:06:11;100487.91;;;16.84;44.25
26859;BME280;14429;48.346;16.338;2023-05-08T11:08:45;100490.38;;;16.76;43.77
26859;BME280;14429;48.346;16.338;2023-05-08T11:11:16;100492.41;;;17.05;50.10
26859;BME280;14429;48.346;16.338;2023-05-08T11:13:47;100481.22;;;17.20;44.27
26859;BME280;14429;48.346;16.338;2023-05-08T11:16:13;100486.47;;;17.63;50.65
26859;BME280;14429;48.346;16.338;2023-05-08T11:19:16;100481.13;;;18.04;47.30
26859;BME280;14429;48.346;16.338;2023-05-08T11:22:12;100471.41;;;17.30;43.17
26859;BME280;14429;48.346;16.338;2023-05-08T11:24:38;100482.66;;;17.35;43.03
26859;BME280;14429;48.346;16.338;2023-05-08T11:27:04;100479.53;;;16.98;44.08
26859;BME280;14429;48.346;16.338;2023-05-08T11:29:30;100473.47;;;17.37;44.36
26859;BME280;14429;48.346;16.338;2023-05-08T11:31:55;100471.19;;;18.04;50.22
26859;BME280;14429;48.346;16.338;2023-05-08T11:34:47;100468.75;;;17.19;41.81
26859;BME280;14429;48.346;16.338;2023-05-08T11:37:16;100474.38;;;17.16;43.10
26859;BME280;14429;48.346;16.338;2023-05-08T11:39:42;100464.22;;;17.51;50.22
26859;BME280;14429;48.346;16.338;2023-05-08T11:42:34;100454.44;;;17.39;43.94
26859;BME280;14429;48.346;16.338;2023-05-08T11:45:03;100451.66;;;17.60;50.66
26859;BME280;14429;48.346;16.338;2023-05-08T11:47:34;100455.34;;;17.59;43.05
26859;BME280;14429;48.346;16.338;2023-05-08T11:50:02;100455.50;;;17.58;44.61
26859;BME280;14429;48.346;16.338;2023-05-08T11:52:30;100453.16;;;17.53;43.03
26859;BME280;14429;48.346;16.338;2023-05-08T11:55:00;100457.94;;;17.30;43.15
26859;BME280;14429;48.346;16.338;2023-05-08T11:57:29;100446.16;;;17.62;48.57
26859;BME280;14429;48.346;16.338;2023-05-08T11:59:54;100452.47;;;17.92;44.98
26859;BME280;14429;48.346;16.338;2023-05-08T12:02:33;100453.72;;;17.88;42.81
26859;BME280;14429;48.346;16.338;2023-05-08T12:04:58;100450.75;;;18.11;48.73
26859;BME280;14429;48.346;16.338;2023-05-08T12:07:26;100452.53;;;18.21;48.19
26859;BME280;14429;48.346;16.338;2023-05-08T12:09:51;100448.56;;;18.25;42.30
26859;BME280;14429;48.346;16.338;2023-05-08T12:12:17;100447.66;;;18.45;48.60
26859;BME280;14429;48.346;16.338;2023-05-08T12:14:42;100450.09;;;18.48;45.78
26859;BME280;14429;48.346;16.338;2023-05-08T12:17:08;100456.78;;;18.24;43.70
26859;BME280;14429;48.346;16.338;2023-05-08T12:19:34;100442.09;;;18.37;46.77
26859;BME280;14429;48.346;16.338;2023-05-08T12:21:59;100446.22;;;18.11;42.15
26859;BME280;14429;48.346;16.338;2023-05-08T12:24:26;100449.91;;;18.10;42.36
26859;BME280;14429;48.346;16.338;2023-05-08T12:26:52;100447.91;;;18.12;43.16
26859;BME280;14429;48.346;16.338;2023-05-08T12:29:18;100458.19;;;18.18;41.97
26859;BME280;14429;48.346;16.338;2023-05-08T12:31:44;100448.09;;;18.50;46.42
26859;BME280;14429;48.346;16.338;2023-05-08T12:34:09;100451.91;;;17.98;41.85
26859;BME280;14429;48.346;16.338;2023-05-08T12:36:36;100445.47;;;17.89;43.07
26859;BME280;14429;48.346;16.338;2023-05-08T12:39:08;100444.25;;;18.13;42.61
26859;BME280;14429;48.346;16.338;2023-05-08T12:41:40;100443.97;;;18.16;43.45
26859;BME280;14429;48.346;16.338;2023-05-08T12:44:15;100436.50;;;18.29;43.16